createdAt,value
2023-02-19T00:00:56.012Z,9.44
2023-02-19T00:03:22.866Z,9.48
2023-02-19T00:05:49.400Z,9.41
2023-02-19T00:08:15.927Z,8.95
2023-02-19T00:10:42.444Z,9.36
2023-02-19T00:13:09.009Z,9.52
2023-02-19T00:15:36.808Z,9.23
2023-02-19T00:18:04.922Z,9.46
2023-02-19T00:20:31.442Z,9.16
2023-02-19T00:22:57.942Z,9.33
2023-02-19T00:25:24.471Z,9.45
2023-02-19T00:27:50.974Z,8.48
2023-02-19T00:30:17.560Z,8.69
2023-02-19T00:32:44.100Z,9.30
2023-02-19T00:35:11.975Z,9.31
2023-02-19T00:37:38.484Z,9.02
2023-02-19T00:40:05.697Z,9.39
2023-02-19T00:42:32.230Z,9.45
2023-02-19T00:44:58.760Z,9.08
2023-02-19T00:47:25.277Z,9.07
2023-02-19T00:49:51.785Z,8.55
2023-02-19T00:52:19.690Z,8.83
2023-02-19T00:54:46.225Z,8.55
2023-02-19T00:57:12.753Z,9.22
2023-02-19T00:59:39.304Z,8.93
2023-02-19T01:02:05.838Z,9.28
2023-02-19T01:04:32.402Z,8.95
2023-02-19T01:06:59.002Z,8.58
2023-02-19T01:09:26.969Z,9.14
2023-02-19T01:11:53.532Z,9.11
2023-02-19T01:14:20.045Z,9.31
2023-02-19T01:16:46.623Z,9.38
2023-02-19T01:19:13.200Z,9.36
2023-02-19T01:21:40.310Z,9.26
2023-02-19T01:24:07.156Z,8.42
2023-02-19T01:26:35.239Z,9.13
2023-02-19T01:29:02.234Z,9.31
2023-02-19T01:31:30.334Z,9.37
2023-02-19T01:33:59.877Z,9.39
2023-02-19T01:36:28.246Z,8.73
2023-02-19T01:38:54.897Z,9.25
2023-02-19T01:41:24.092Z,8.86
2023-02-19T01:44:01.214Z,8.85
2023-02-19T01:46:29.033Z,9.23
2023-02-19T01:48:57.639Z,9.26
2023-02-19T01:51:24.510Z,9.34
2023-02-19T01:53:55.297Z,8.99
2023-02-19T01:56:24.654Z,9.17
2023-02-19T01:58:51.323Z,9.21
2023-02-19T02:01:19.446Z,8.72
2023-02-19T02:03:48.844Z,9.20
2023-02-19T02:06:20.061Z,9.24
2023-02-19T02:09:05.897Z,9.28
2023-02-19T02:11:32.534Z,9.29
2023-02-19T02:13:59.321Z,8.64
2023-02-19T02:16:34.848Z,8.38
2023-02-19T02:19:13.143Z,8.64
2023-02-19T02:21:57.548Z,9.15
2023-02-19T02:25:01.342Z,9.21
2023-02-19T02:27:39.801Z,9.10
2023-02-19T02:30:21.179Z,8.96
2023-02-19T02:32:56.395Z,9.19
2023-02-19T02:35:26.692Z,9.17
2023-02-19T02:37:56.917Z,9.23
2023-02-19T02:40:23.765Z,8.81
2023-02-19T02:42:50.334Z,7.97
2023-02-19T02:45:36.981Z,8.93
2023-02-19T02:48:26.856Z,9.11
2023-02-19T02:50:56.297Z,9.16
2023-02-19T02:53:46.015Z,9.15
2023-02-19T02:56:13.359Z,9.20
2023-02-19T02:58:40.543Z,8.83
2023-02-19T03:01:30.444Z,9.07
2023-02-19T03:04:03.060Z,9.18
2023-02-19T03:06:33.631Z,9.22
2023-02-19T03:09:06.095Z,9.19
2023-02-19T03:11:54.373Z,9.12
2023-02-19T03:14:44.058Z,9.15
2023-02-19T03:17:33.588Z,9.09
2023-02-19T03:20:03.923Z,9.12
2023-02-19T03:22:34.302Z,9.02
2023-02-19T03:25:22.515Z,9.07
2023-02-19T03:27:50.995Z,9.16
2023-02-19T03:30:22.854Z,9.13
2023-02-19T03:32:55.075Z,8.05
2023-02-19T03:35:24.620Z,8.80
2023-02-19T03:38:00.673Z,8.99
2023-02-19T03:40:30.736Z,9.08
2023-02-19T03:43:04.314Z,9.08
2023-02-19T03:45:38.906Z,9.10
2023-02-19T03:48:19.974Z,9.08
2023-02-19T03:50:50.218Z,9.02
2023-02-19T03:53:26.523Z,9.11
2023-02-19T03:56:03.032Z,8.84
2023-02-19T03:58:35.244Z,9.02
2023-02-19T04:01:06.526Z,8.96
2023-02-19T04:03:40.418Z,7.65
2023-02-19T04:06:13.748Z,6.94
2023-02-19T04:08:45.188Z,8.57
2023-02-19T04:11:12.104Z,8.11
2023-02-19T04:13:44.255Z,8.63
2023-02-19T04:16:17.605Z,8.69
2023-02-19T04:18:47.788Z,8.90
2023-02-19T04:21:15.498Z,8.95
2023-02-19T04:23:44.642Z,8.62
2023-02-19T04:26:13.364Z,7.15
2023-02-19T04:28:41.034Z,8.55
2023-02-19T04:31:07.666Z,8.02
2023-02-19T04:33:34.520Z,8.67
2023-02-19T04:36:02.564Z,8.81
2023-02-19T04:38:29.093Z,8.82
2023-02-19T04:40:55.627Z,8.80
2023-02-19T04:43:22.181Z,8.85
2023-02-19T04:45:49.126Z,8.45
2023-02-19T04:48:15.777Z,7.27
2023-02-19T04:50:42.309Z,7.71
2023-02-19T04:53:10.200Z,8.58
2023-02-19T04:55:37.828Z,8.53
2023-02-19T04:58:04.531Z,8.28
2023-02-19T05:00:31.130Z,7.47
2023-02-19T05:02:57.684Z,8.52
2023-02-19T05:05:24.200Z,8.26
2023-02-19T05:07:50.734Z,7.42
2023-02-19T05:10:18.852Z,8.16
2023-02-19T05:12:45.371Z,7.91
2023-02-19T05:15:11.896Z,8.42
2023-02-19T05:17:38.498Z,8.53
2023-02-19T05:20:05.568Z,8.45
2023-02-19T05:22:32.103Z,7.98
2023-02-19T05:24:58.663Z,8.30
2023-02-19T05:27:26.525Z,8.13
2023-02-19T05:29:53.147Z,8.49
2023-02-19T05:32:19.686Z,8.40
2023-02-19T05:34:46.219Z,7.97
2023-02-19T05:37:12.783Z,8.32
2023-02-19T05:39:39.319Z,8.00
2023-02-19T05:42:05.849Z,7.98
2023-02-19T05:44:33.727Z,8.06
2023-02-19T05:47:00.284Z,8.11
2023-02-19T05:49:27.836Z,8.39
2023-02-19T05:51:54.432Z,8.19
2023-02-19T05:54:20.966Z,7.90
2023-02-19T05:56:47.568Z,7.86
2023-02-19T05:59:16.971Z,7.83
2023-02-19T06:01:45.037Z,8.11
2023-02-19T06:04:12.460Z,8.31
2023-02-19T06:06:39.502Z,8.17
2023-02-19T06:09:06.842Z,8.45
2023-02-19T06:11:33.806Z,8.50
2023-02-19T06:14:00.399Z,8.10
2023-02-19T06:16:27.324Z,8.44
2023-02-19T06:18:55.433Z,8.19
2023-02-19T06:21:22.070Z,8.44
2023-02-19T06:23:48.601Z,8.43
2023-02-19T06:26:17.953Z,8.18
2023-02-19T06:28:45.286Z,8.40
2023-02-19T06:31:13.047Z,8.48
2023-02-19T06:33:40.756Z,8.46
2023-02-19T06:36:12.349Z,8.49
2023-02-19T06:38:38.917Z,8.43
2023-02-19T06:41:06.953Z,8.50
2023-02-19T06:43:34.397Z,8.34
2023-02-19T06:46:03.183Z,7.89
2023-02-19T06:48:30.940Z,8.33
2023-02-19T06:50:57.766Z,8.40
2023-02-19T06:53:26.175Z,8.24
2023-02-19T06:55:56.787Z,8.42
2023-02-19T06:58:23.617Z,8.42
2023-02-19T07:00:50.179Z,8.33
2023-02-19T07:03:16.777Z,8.32
2023-02-19T07:05:43.864Z,8.41
2023-02-19T07:08:10.559Z,7.87
2023-02-19T07:10:38.465Z,7.84
2023-02-19T07:13:05.166Z,8.31
2023-02-19T07:15:31.703Z,7.99
2023-02-19T07:17:59.124Z,8.00
2023-02-19T07:20:28.474Z,8.04
2023-02-19T07:22:56.957Z,8.23
2023-02-19T07:25:23.467Z,8.30
2023-02-19T07:27:51.322Z,8.34
2023-02-19T07:30:17.951Z,8.34
2023-02-19T07:32:45.385Z,8.41
2023-02-19T07:35:12.075Z,8.45
2023-02-19T07:37:40.205Z,8.28
2023-02-19T07:40:07.350Z,8.44
2023-02-19T07:42:33.891Z,8.43
2023-02-19T07:45:01.787Z,8.43
2023-02-19T07:47:29.184Z,8.31
2023-02-19T07:49:55.869Z,8.37
2023-02-19T07:52:22.401Z,8.26
2023-02-19T07:54:49.051Z,8.24
2023-02-19T07:57:15.822Z,8.34
2023-02-19T07:59:42.442Z,8.17
2023-02-19T08:02:35.464Z,8.49
2023-02-19T08:05:02.465Z,8.54
2023-02-19T08:07:32.467Z,8.53
2023-02-19T08:10:21.700Z,8.56
2023-02-19T08:13:14.188Z,8.38
2023-02-19T08:15:40.730Z,8.54
2023-02-19T08:18:09.705Z,8.66
2023-02-19T08:20:37.076Z,8.61
2023-02-19T08:23:03.968Z,8.53
2023-02-19T08:25:30.653Z,8.83
2023-02-19T08:27:57.251Z,8.68
2023-02-19T08:30:23.902Z,8.63
2023-02-19T08:32:50.509Z,8.86
2023-02-19T08:35:18.457Z,8.47
2023-02-19T08:37:45.061Z,8.67
2023-02-19T08:40:12.377Z,8.57
2023-02-19T08:42:38.949Z,8.83
2023-02-19T08:45:06.492Z,8.78
2023-02-19T08:47:35.476Z,8.83
2023-02-19T08:50:02.559Z,8.68
2023-02-19T08:52:30.477Z,8.78
2023-02-19T08:54:57.119Z,8.63
2023-02-19T08:57:24.041Z,8.55
2023-02-19T08:59:50.626Z,8.46
2023-02-19T09:02:17.285Z,8.47
2023-02-19T09:04:43.851Z,8.55
2023-02-19T09:07:12.046Z,8.40
2023-02-19T09:09:40.659Z,8.67
2023-02-19T09:12:08.967Z,8.65
2023-02-19T09:14:36.315Z,8.51
2023-02-19T09:17:04.403Z,8.42
2023-02-19T09:19:31.171Z,8.52
2023-02-19T09:21:58.038Z,8.55
2023-02-19T09:24:25.055Z,8.52
2023-02-19T09:26:54.447Z,8.47
2023-02-19T09:29:22.085Z,8.52
2023-02-19T09:31:48.724Z,8.54
2023-02-19T09:34:15.428Z,8.55
2023-02-19T09:36:42.159Z,8.55
2023-02-19T09:39:10.392Z,8.68
2023-02-19T09:41:39.707Z,8.36
2023-02-19T09:44:11.685Z,8.71
2023-02-19T09:46:43.210Z,8.70
2023-02-19T09:49:15.353Z,8.60
2023-02-19T09:51:45.602Z,8.77
2023-02-19T09:54:20.298Z,8.56
2023-02-19T09:56:47.351Z,8.87
2023-02-19T09:59:20.772Z,8.85
2023-02-19T10:01:49.530Z,9.05
2023-02-19T10:04:16.103Z,8.83
2023-02-19T10:06:43.411Z,8.88
2023-02-19T10:09:20.959Z,8.89
2023-02-19T10:11:48.861Z,9.10
2023-02-19T10:14:21.138Z,8.65
2023-02-19T10:16:49.623Z,8.70
2023-02-19T10:19:16.982Z,8.67
2023-02-19T10:21:44.397Z,8.40
2023-02-19T10:24:20.498Z,8.60
2023-02-19T10:26:47.393Z,8.68
2023-02-19T10:29:13.977Z,8.79
2023-02-19T10:31:42.027Z,9.55
2023-02-19T10:34:18.710Z,8.80
2023-02-19T10:36:48.649Z,9.20
2023-02-19T10:39:39.441Z,9.06
2023-02-19T10:42:06.012Z,9.01
2023-02-19T10:44:38.367Z,8.52
2023-02-19T10:47:06.484Z,8.96
2023-02-19T10:49:37.188Z,8.83
2023-02-19T10:52:20.279Z,8.81
2023-02-19T10:54:50.992Z,9.39
2023-02-19T10:57:30.392Z,9.36
2023-02-19T11:00:01.087Z,8.97
2023-02-19T11:02:30.056Z,8.71
2023-02-19T11:05:06.206Z,8.64
2023-02-19T11:07:33.141Z,9.09
2023-02-19T11:10:00.403Z,8.56
2023-02-19T11:12:29.712Z,8.75
2023-02-19T11:14:56.670Z,8.55
2023-02-19T11:17:27.692Z,8.46
2023-02-19T11:19:58.452Z,9.13
2023-02-19T11:22:31.204Z,9.22
2023-02-19T11:25:04.375Z,9.14
2023-02-19T11:27:32.151Z,9.06
2023-02-19T11:30:33.880Z,8.47
2023-02-19T11:33:20.220Z,9.20
2023-02-19T11:35:49.314Z,9.04
2023-02-19T11:38:17.684Z,9.45
2023-02-19T11:40:48.060Z,8.68
2023-02-19T11:43:35.645Z,9.47
2023-02-19T11:46:09.583Z,9.49
2023-02-19T11:48:59.121Z,9.47
2023-02-19T11:51:37.880Z,8.68
2023-02-19T11:54:18.324Z,8.68
2023-02-19T11:56:49.307Z,9.21
2023-02-19T11:59:26.562Z,8.98
2023-02-19T12:02:31.528Z,8.83
2023-02-19T12:05:18.256Z,9.56
2023-02-19T12:08:15.792Z,9.06
2023-02-19T12:10:56.767Z,8.67
2023-02-19T12:13:33.010Z,9.64
2023-02-19T12:16:14.931Z,9.68
2023-02-19T12:19:02.787Z,9.74
2023-02-19T12:21:43.662Z,8.85
2023-02-19T12:24:40.253Z,9.45
2023-02-19T12:27:20.470Z,9.11
2023-02-19T12:30:12.785Z,9.22
2023-02-19T12:33:00.328Z,8.79
2023-02-19T12:35:46.223Z,9.72
2023-02-19T12:38:22.292Z,10.08
2023-02-19T12:41:10.435Z,10.36
2023-02-19T12:43:40.922Z,10.39
2023-02-19T12:46:14.879Z,9.35
2023-02-19T12:48:49.115Z,9.05
2023-02-19T12:51:20.797Z,9.35
2023-02-19T12:53:50.529Z,9.47
2023-02-19T12:56:20.898Z,9.29
2023-02-19T12:58:50.528Z,9.78
2023-02-19T13:01:20.895Z,9.77
2023-02-19T13:03:53.760Z,9.02
2023-02-19T13:06:36.374Z,9.30
2023-02-19T13:09:10.923Z,9.44
2023-02-19T13:11:44.483Z,9.73
2023-02-19T13:14:18.510Z,10.44
2023-02-19T13:16:48.852Z,9.66
2023-02-19T13:19:15.420Z,9.54
2023-02-19T13:22:05.204Z,9.45
2023-02-19T13:24:36.273Z,9.61
2023-02-19T13:27:30.638Z,9.57
2023-02-19T13:30:11.928Z,9.46
2023-02-19T13:32:53.450Z,9.61
2023-02-19T13:35:49.173Z,9.44
2023-02-19T13:38:17.290Z,9.68
2023-02-19T13:40:54.309Z,9.61
2023-02-19T13:43:25.608Z,9.68
2023-02-19T13:45:56.548Z,9.70
2023-02-19T13:48:29.624Z,9.62
2023-02-19T13:51:46.728Z,9.40
2023-02-19T13:54:22.677Z,9.28
2023-02-19T13:56:50.135Z,9.28
2023-02-19T13:59:35.960Z,9.26
2023-02-19T14:02:32.357Z,9.11
2023-02-19T14:05:01.204Z,8.93
2023-02-19T14:07:54.361Z,8.79
2023-02-19T14:10:54.247Z,8.77
2023-02-19T14:13:55.647Z,8.77
2023-02-19T14:16:48.346Z,8.67
2023-02-19T14:19:16.320Z,8.57
2023-02-19T14:21:43.897Z,8.63
2023-02-19T14:24:11.719Z,8.47
2023-02-19T14:26:41.398Z,8.60
2023-02-19T14:29:08.901Z,8.46
2023-02-19T14:31:37.673Z,8.57
2023-02-19T14:34:06.900Z,8.52
2023-02-19T14:36:40.492Z,8.35
2023-02-19T14:39:14.069Z,8.34
2023-02-19T14:41:45.679Z,8.36
2023-02-19T14:44:17.924Z,8.58
2023-02-19T14:46:51.462Z,8.44
2023-02-19T14:49:25.375Z,8.28
2023-02-19T14:51:56.115Z,8.30
2023-02-19T14:54:35.606Z,8.45
2023-02-19T14:57:04.462Z,8.60
2023-02-19T14:59:31.347Z,8.72
2023-02-19T15:02:00.839Z,8.78
2023-02-19T15:04:29.928Z,8.81
2023-02-19T15:07:00.840Z,8.78
2023-02-19T15:09:32.342Z,8.73
2023-02-19T15:12:00.240Z,8.66
2023-02-19T15:14:30.655Z,8.70
2023-02-19T15:17:00.096Z,8.79
2023-02-19T15:19:27.352Z,8.65
2023-02-19T15:21:55.065Z,8.73
2023-02-19T15:24:22.047Z,8.57
2023-02-19T15:26:51.574Z,8.52
2023-02-19T15:29:20.640Z,8.71
2023-02-19T15:31:50.298Z,8.68
2023-02-19T15:34:18.348Z,8.76
2023-02-19T15:36:45.327Z,8.70
2023-02-19T15:39:19.716Z,8.79
2023-02-19T15:41:52.471Z,8.70
2023-02-19T15:44:31.791Z,8.68
2023-02-19T15:47:04.789Z,8.66
2023-02-19T15:49:39.593Z,8.64
2023-02-19T15:52:11.775Z,8.56
2023-02-19T15:54:54.434Z,8.46
2023-02-19T15:57:28.858Z,8.62
2023-02-19T16:00:02.534Z,8.53
2023-02-19T16:02:30.649Z,8.51
2023-02-19T16:04:57.442Z,8.41
2023-02-19T16:07:25.967Z,8.20
2023-02-19T16:10:06.923Z,8.26
2023-02-19T16:12:33.705Z,8.38
2023-02-19T16:15:11.938Z,8.45
2023-02-19T16:17:43.084Z,8.46
2023-02-19T16:20:20.125Z,8.15
2023-02-19T16:22:46.898Z,8.17
2023-02-19T16:25:26.355Z,8.32
2023-02-19T16:27:53.162Z,8.03
2023-02-19T16:30:28.724Z,7.78
2023-02-19T16:33:22.443Z,7.80
2023-02-19T16:35:52.128Z,7.79
2023-02-19T16:38:19.872Z,7.58
2023-02-19T16:41:06.152Z,7.65
2023-02-19T16:43:41.105Z,7.71
2023-02-19T16:46:11.707Z,7.43
2023-02-19T16:48:39.687Z,7.44
2023-02-19T16:51:07.803Z,7.66
2023-02-19T16:53:34.749Z,7.54
2023-02-19T16:56:01.896Z,8.20
2023-02-19T16:58:28.501Z,7.96
2023-02-19T17:00:56.073Z,8.15
2023-02-19T17:03:24.845Z,8.40
2023-02-19T17:05:53.422Z,8.23
2023-02-19T17:08:31.029Z,8.24
2023-02-19T17:10:58.121Z,8.25
2023-02-19T17:13:24.683Z,8.41
2023-02-19T17:15:51.232Z,8.44
2023-02-19T17:18:17.848Z,8.48
2023-02-19T17:20:48.452Z,8.48
2023-02-19T17:23:16.659Z,8.49
2023-02-19T17:25:43.237Z,8.51
2023-02-19T17:28:09.776Z,7.90
2023-02-19T17:30:37.791Z,8.36
2023-02-19T17:33:06.254Z,8.33
2023-02-19T17:35:32.814Z,7.56
2023-02-19T17:37:59.392Z,8.28
2023-02-19T17:40:33.433Z,7.90
2023-02-19T17:43:00.602Z,8.34
2023-02-19T17:45:27.312Z,8.37
2023-02-19T17:47:53.849Z,7.99
2023-02-19T17:50:23.552Z,8.38
2023-02-19T17:52:49.959Z,8.47
2023-02-19T17:55:18.386Z,8.47
2023-02-19T17:57:47.444Z,8.22
2023-02-19T18:00:15.645Z,8.39
2023-02-19T18:02:42.491Z,8.00
2023-02-19T18:05:09.515Z,8.39
2023-02-19T18:07:36.096Z,8.32
2023-02-19T18:10:03.192Z,8.32
2023-02-19T18:12:29.722Z,7.78
2023-02-19T18:14:57.916Z,8.21
2023-02-19T18:17:25.178Z,8.37
2023-02-19T18:19:52.745Z,7.52
2023-02-19T18:22:19.480Z,7.93
2023-02-19T18:24:47.305Z,8.18
2023-02-19T18:27:14.887Z,8.30
2023-02-19T18:29:41.938Z,8.42
2023-02-19T18:32:10.375Z,8.45
2023-02-19T18:34:37.153Z,8.48
2023-02-19T18:37:03.896Z,8.34
2023-02-19T18:39:30.493Z,8.47
2023-02-19T18:41:58.185Z,8.49
2023-02-19T18:44:25.384Z,8.48
2023-02-19T18:46:52.137Z,8.49
2023-02-19T18:49:20.356Z,8.49
2023-02-19T18:51:46.997Z,8.53
2023-02-19T18:54:13.585Z,8.52
2023-02-19T18:56:42.091Z,8.51
2023-02-19T18:59:09.071Z,8.48
2023-02-19T19:01:35.924Z,8.47
2023-02-19T19:04:02.872Z,8.49
2023-02-19T19:06:31.131Z,8.50
2023-02-19T19:09:00.915Z,8.24
2023-02-19T19:11:27.835Z,8.42
2023-02-19T19:13:54.469Z,8.47
2023-02-19T19:16:23.521Z,8.47
2023-02-19T19:18:50.149Z,8.18
2023-02-19T19:21:17.088Z,8.08
2023-02-19T19:23:45.255Z,8.39
2023-02-19T19:26:13.004Z,8.43
2023-02-19T19:28:44.212Z,8.46
2023-02-19T19:31:11.852Z,8.45
2023-02-19T19:33:38.722Z,8.47
2023-02-19T19:36:06.327Z,8.46
2023-02-19T19:38:33.210Z,8.45
2023-02-19T19:41:01.294Z,8.42
2023-02-19T19:43:28.392Z,8.47
2023-02-19T19:45:55.637Z,8.49
2023-02-19T19:48:23.105Z,7.88
2023-02-19T19:50:49.729Z,8.16
2023-02-19T19:53:16.829Z,8.36
2023-02-19T19:55:43.518Z,7.43
2023-02-19T19:58:11.449Z,8.05
2023-02-19T20:00:37.980Z,8.27
2023-02-19T20:03:05.481Z,7.86
2023-02-19T20:05:32.050Z,7.52
2023-02-19T20:07:58.602Z,8.14
2023-02-19T20:10:25.178Z,8.28
2023-02-19T20:12:51.787Z,7.56
2023-02-19T20:15:22.110Z,7.69
2023-02-19T20:17:48.822Z,8.19
2023-02-19T20:20:16.292Z,8.09
2023-02-19T20:22:42.854Z,7.95
2023-02-19T20:25:09.631Z,7.97
2023-02-19T20:27:36.180Z,8.03
2023-02-19T20:30:03.671Z,6.75
2023-02-19T20:32:31.613Z,7.70
2023-02-19T20:34:58.196Z,7.39
2023-02-19T20:37:24.759Z,7.14
2023-02-19T20:39:51.409Z,7.73
2023-02-19T20:42:18.544Z,7.16
2023-02-19T20:44:45.314Z,7.29
2023-02-19T20:47:11.917Z,7.41
2023-02-19T20:49:44.297Z,7.18
2023-02-19T20:52:10.886Z,7.51
2023-02-19T20:54:38.303Z,7.60
2023-02-19T20:57:05.791Z,7.56
2023-02-19T20:59:35.370Z,7.46
2023-02-19T21:02:02.792Z,7.88
2023-02-19T21:04:29.392Z,7.94
2023-02-19T21:06:57.456Z,7.83
2023-02-19T21:09:24.172Z,7.94
2023-02-19T21:11:51.287Z,7.92
2023-02-19T21:14:18.241Z,7.43
2023-02-19T21:16:45.068Z,7.79
2023-02-19T21:19:11.720Z,7.93
2023-02-19T21:21:40.212Z,7.35
2023-02-19T21:24:09.616Z,7.41
2023-02-19T21:26:39.297Z,7.52
2023-02-19T21:29:06.855Z,7.61
2023-02-19T21:31:38.571Z,7.72
2023-02-19T21:34:05.804Z,7.68
2023-02-19T21:36:32.437Z,7.68
2023-02-19T21:38:59.059Z,7.87
2023-02-19T21:41:27.168Z,7.92
2023-02-19T21:43:54.358Z,7.93
2023-02-19T21:46:21.150Z,7.75
2023-02-19T21:48:47.921Z,7.64
2023-02-19T21:51:14.547Z,7.47
2023-02-19T21:53:41.160Z,7.40
2023-02-19T21:56:08.673Z,7.56
2023-02-19T21:58:36.661Z,7.41
2023-02-19T22:01:03.421Z,7.37
2023-02-19T22:03:30.831Z,7.61
2023-02-19T22:06:01.190Z,7.58
2023-02-19T22:08:27.783Z,7.78
2023-02-19T22:10:54.330Z,7.79
2023-02-19T22:13:20.933Z,7.84
2023-02-19T22:15:48.845Z,7.76
2023-02-19T22:18:15.451Z,7.68
2023-02-19T22:20:42.103Z,7.70
2023-02-19T22:23:08.638Z,7.71
2023-02-19T22:25:35.201Z,7.84
2023-02-19T22:28:03.533Z,7.88
2023-02-19T22:30:30.133Z,7.61
2023-02-19T22:32:58.082Z,7.51
2023-02-19T22:35:25.436Z,7.40
2023-02-19T22:37:51.986Z,7.46
2023-02-19T22:40:18.555Z,7.34
2023-02-19T22:42:45.215Z,7.50
2023-02-19T22:45:12.280Z,7.22
2023-02-19T22:47:39.967Z,7.64
2023-02-19T22:50:09.203Z,7.41
2023-02-19T22:52:35.756Z,7.46
2023-02-19T22:55:02.327Z,7.27
2023-02-19T22:57:28.859Z,7.36
2023-02-19T22:59:55.440Z,7.44
2023-02-19T23:02:22.096Z,7.49
2023-02-19T23:04:48.886Z,7.42
2023-02-19T23:07:16.753Z,7.48
2023-02-19T23:09:44.612Z,7.41
2023-02-19T23:12:11.762Z,7.27
2023-02-19T23:14:38.533Z,7.53
2023-02-19T23:17:05.273Z,7.40
2023-02-19T23:19:32.373Z,7.29
2023-02-19T23:21:59.273Z,7.25
2023-02-19T23:24:27.161Z,7.56
2023-02-19T23:26:54.527Z,7.47
2023-02-19T23:29:25.390Z,7.44
2023-02-19T23:31:54.238Z,7.29
2023-02-19T23:34:21.988Z,7.11
2023-02-19T23:36:50.390Z,7.58
2023-02-19T23:39:19.488Z,7.46
2023-02-19T23:41:48.473Z,7.25
2023-02-19T23:44:15.246Z,7.17
2023-02-19T23:46:41.883Z,7.44
2023-02-19T23:49:08.584Z,7.09
2023-02-19T23:51:35.244Z,7.44
2023-02-19T23:54:01.783Z,7.39
2023-02-19T23:56:29.425Z,7.21
2023-02-19T23:58:57.363Z,7.19
